createdAt,value
2018-10-16T00:01:59.421Z,77.57
2018-10-16T00:04:28.244Z,77.15
2018-10-16T00:06:57.041Z,77.41
2018-10-16T00:09:25.834Z,77.13
2018-10-16T00:12:03.869Z,78.00
2018-10-16T00:14:32.909Z,78.14
2018-10-16T00:17:02.678Z,78.17
2018-10-16T00:19:31.864Z,78.04
2018-10-16T00:22:00.653Z,77.50
2018-10-16T00:24:29.478Z,77.80
2018-10-16T00:26:58.268Z,77.70
2018-10-16T00:29:27.100Z,78.07
2018-10-16T00:31:55.915Z,78.28
2018-10-16T00:34:24.680Z,77.39
2018-10-16T00:36:53.488Z,77.49
2018-10-16T00:39:22.293Z,77.15
2018-10-16T00:41:53.089Z,76.91
2018-10-16T00:44:22.009Z,76.95
2018-10-16T00:46:50.787Z,77.38
2018-10-16T00:49:19.568Z,77.46
2018-10-16T00:51:48.344Z,77.13
2018-10-16T00:54:17.149Z,76.21
2018-10-16T00:56:45.929Z,75.92
2018-10-16T00:59:14.753Z,75.62
2018-10-16T01:01:43.533Z,75.24
2018-10-16T01:04:12.329Z,75.25
2018-10-16T01:06:41.109Z,75.58
2018-10-16T01:09:12.040Z,75.45
2018-10-16T01:11:41.058Z,75.42
2018-10-16T01:14:09.876Z,75.66
2018-10-16T01:16:38.693Z,75.66
2018-10-16T01:19:07.513Z,75.89
2018-10-16T01:21:36.313Z,75.99
2018-10-16T01:24:05.381Z,75.51
2018-10-16T01:26:34.185Z,77.00
2018-10-16T01:29:02.976Z,76.86
2018-10-16T01:31:31.865Z,76.86
2018-10-16T01:34:00.650Z,76.23
2018-10-16T01:36:29.457Z,76.17
2018-10-16T01:38:58.261Z,76.41
2018-10-16T01:41:27.048Z,76.90
2018-10-16T01:43:55.826Z,76.51
2018-10-16T01:46:24.625Z,76.98
2018-10-16T01:48:53.423Z,76.84
2018-10-16T01:51:22.194Z,76.85
2018-10-16T01:53:50.989Z,77.32
2018-10-16T01:56:19.772Z,77.12
2018-10-16T01:58:48.597Z,77.16
2018-10-16T02:01:17.384Z,76.67
2018-10-16T02:03:46.179Z,76.03
2018-10-16T02:06:14.966Z,76.07
2018-10-16T02:08:43.790Z,76.52
2018-10-16T02:11:12.652Z,76.71
2018-10-16T02:13:41.492Z,76.50
2018-10-16T02:16:10.363Z,76.50
2018-10-16T02:18:39.172Z,76.10
2018-10-16T02:21:08.070Z,76.15
2018-10-16T02:23:37.239Z,76.23
2018-10-16T02:26:06.507Z,76.32
2018-10-16T02:28:38.309Z,76.19
2018-10-16T02:31:07.128Z,76.20
2018-10-16T02:33:35.951Z,76.37
2018-10-16T02:36:04.797Z,76.57
2018-10-16T02:38:33.622Z,76.38
2018-10-16T02:41:02.430Z,75.91
2018-10-16T02:43:31.285Z,75.54
2018-10-16T02:46:00.090Z,74.89
2018-10-16T02:48:28.910Z,75.46
2018-10-16T02:50:57.708Z,75.04
2018-10-16T02:53:26.501Z,74.70
2018-10-16T02:55:55.282Z,74.95
2018-10-16T02:58:24.138Z,74.45
2018-10-16T03:00:52.924Z,74.50
2018-10-16T03:03:21.719Z,74.51
2018-10-16T03:05:50.548Z,73.85
2018-10-16T03:08:19.557Z,74.12
2018-10-16T03:10:48.378Z,74.41
2018-10-16T03:13:17.212Z,74.48
2018-10-16T03:15:46.005Z,74.59
2018-10-16T03:18:14.892Z,74.94
2018-10-16T03:20:43.757Z,74.59
2018-10-16T03:23:12.561Z,74.16
2018-10-16T03:25:41.361Z,73.89
2018-10-16T03:28:10.163Z,74.26
2018-10-16T03:30:38.960Z,73.96
2018-10-16T03:33:07.773Z,73.91
2018-10-16T03:35:36.557Z,74.37
2018-10-16T03:38:05.545Z,74.80
2018-10-16T03:40:34.325Z,74.92
2018-10-16T03:43:03.117Z,75.42
2018-10-16T03:45:31.905Z,75.78
2018-10-16T03:48:00.720Z,75.89
2018-10-16T03:50:29.506Z,75.23
2018-10-16T03:52:58.312Z,75.37
2018-10-16T03:55:27.104Z,74.95
2018-10-16T03:57:55.912Z,75.67
2018-10-16T04:00:24.706Z,74.96
2018-10-16T04:02:53.493Z,74.87
2018-10-16T04:05:22.429Z,75.17
2018-10-16T04:07:51.244Z,75.52
2018-10-16T04:10:20.030Z,75.57
2018-10-16T04:12:49.854Z,75.74
2018-10-16T04:15:18.697Z,75.44
2018-10-16T04:17:47.547Z,75.13
2018-10-16T04:20:16.302Z,75.14
2018-10-16T04:22:45.163Z,75.41
2018-10-16T04:25:13.889Z,75.12
2018-10-16T04:27:42.674Z,75.79
2018-10-16T04:30:11.433Z,75.67
2018-10-16T04:32:40.213Z,76.23
2018-10-16T04:35:11.597Z,76.39
2018-10-16T04:37:40.382Z,75.36
2018-10-16T04:40:08.869Z,75.77
2018-10-16T04:42:37.661Z,75.88
2018-10-16T04:45:07.175Z,75.81
2018-10-16T04:47:35.974Z,76.35
2018-10-16T04:50:04.825Z,75.79
2018-10-16T04:52:33.582Z,75.74
2018-10-16T04:55:02.443Z,75.85
2018-10-16T04:57:31.202Z,76.04
2018-10-16T05:00:00.002Z,76.68
2018-10-16T05:02:28.794Z,76.37
2018-10-16T05:04:57.593Z,76.29
2018-10-16T05:07:26.412Z,75.83
2018-10-16T05:09:55.301Z,75.93
2018-10-16T05:12:24.090Z,75.71
2018-10-16T05:14:52.877Z,75.90
2018-10-16T05:17:21.661Z,75.84
2018-10-16T05:19:50.453Z,75.67
2018-10-16T05:22:19.234Z,75.12
2018-10-16T05:24:48.036Z,74.89
2018-10-16T05:27:16.884Z,74.73
2018-10-16T05:29:45.660Z,75.00
2018-10-16T05:32:14.464Z,74.96
2018-10-16T05:34:43.344Z,74.46
2018-10-16T05:37:12.118Z,74.07
2018-10-16T05:39:40.950Z,74.53
2018-10-16T05:42:09.768Z,74.41
2018-10-16T05:44:38.550Z,74.10
2018-10-16T05:47:07.342Z,74.05
2018-10-16T05:49:36.118Z,74.28
2018-10-16T05:52:04.908Z,74.20
2018-10-16T05:54:33.669Z,73.86
2018-10-16T05:57:02.422Z,74.50
2018-10-16T05:59:31.292Z,73.85
2018-10-16T06:02:00.065Z,73.46
2018-10-16T06:04:28.841Z,73.38
2018-10-16T06:06:57.599Z,73.44
2018-10-16T06:09:26.354Z,73.43
2018-10-16T06:11:55.103Z,73.48
2018-10-16T06:14:23.868Z,73.43
2018-10-16T06:16:52.613Z,73.47
2018-10-16T06:19:21.381Z,73.48
2018-10-16T06:21:50.146Z,73.56
2018-10-16T06:24:19.049Z,73.78
2018-10-16T06:26:47.720Z,73.32
2018-10-16T06:29:16.501Z,72.63
2018-10-16T06:31:45.279Z,71.89
2018-10-16T06:34:14.032Z,71.17
2018-10-16T06:36:42.802Z,70.13
2018-10-16T06:39:11.850Z,70.21
2018-10-16T06:41:40.740Z,70.04
2018-10-16T06:44:09.517Z,70.43
2018-10-16T06:46:38.386Z,69.69
2018-10-16T06:49:07.119Z,69.68
2018-10-16T06:51:35.890Z,69.12
2018-10-16T06:54:04.632Z,69.13
2018-10-16T06:56:33.466Z,68.22
2018-10-16T06:59:02.201Z,67.78
2018-10-16T07:01:30.977Z,67.95
2018-10-16T07:03:59.717Z,68.22
2018-10-16T07:06:28.591Z,67.46
2018-10-16T07:08:57.297Z,67.12
2018-10-16T07:11:26.066Z,67.06
2018-10-16T07:13:54.885Z,67.62
2018-10-16T07:16:23.696Z,68.06
2018-10-16T07:18:52.449Z,67.86
2018-10-16T07:21:21.279Z,67.41
2018-10-16T07:23:50.022Z,67.64
2018-10-16T07:26:18.765Z,66.93
2018-10-16T07:28:47.521Z,66.94
2018-10-16T07:31:16.321Z,67.25
2018-10-16T07:33:45.089Z,66.91
2018-10-16T07:36:13.922Z,66.97
2018-10-16T07:38:42.651Z,66.44
2018-10-16T07:41:11.430Z,66.79
2018-10-16T07:43:40.221Z,65.79
2018-10-16T07:46:09.013Z,66.51
2018-10-16T07:48:37.906Z,65.98
2018-10-16T07:51:06.609Z,66.03
2018-10-16T07:53:35.473Z,66.02
2018-10-16T07:56:04.254Z,65.56
2018-10-16T07:58:33.021Z,66.36
2018-10-16T08:01:01.815Z,67.34
2018-10-16T08:03:30.628Z,66.75
2018-10-16T08:05:59.371Z,66.80
2018-10-16T08:08:28.137Z,66.81
2018-10-16T08:10:56.901Z,66.29
2018-10-16T08:13:25.742Z,66.25
2018-10-16T08:15:54.537Z,66.30
2018-10-16T08:18:23.321Z,66.31
2018-10-16T08:20:52.084Z,66.24
2018-10-16T08:23:20.938Z,65.94
2018-10-16T08:25:49.681Z,65.60
2018-10-16T08:28:18.454Z,65.30
2018-10-16T08:30:47.229Z,64.41
2018-10-16T08:33:16.092Z,64.55
2018-10-16T08:35:44.875Z,64.10
2018-10-16T08:38:21.228Z,62.66
2018-10-16T08:40:49.989Z,63.84
2018-10-16T08:43:36.686Z,63.10
2018-10-16T08:48:21.549Z,62.98
2018-10-16T08:51:01.577Z,61.77
2018-10-16T08:53:30.397Z,61.75
2018-10-16T08:56:02.465Z,61.37
2018-10-16T08:58:31.245Z,61.09
2018-10-16T09:01:00.010Z,60.96
2018-10-16T09:03:28.809Z,59.82
2018-10-16T09:05:57.626Z,59.84
2018-10-16T09:08:26.390Z,59.37
2018-10-16T09:10:55.193Z,58.16
2018-10-16T09:13:23.972Z,56.96
2018-10-16T09:15:52.750Z,56.26
2018-10-16T09:18:21.571Z,54.60
2018-10-16T09:20:50.333Z,55.47
2018-10-16T09:23:19.153Z,54.08
2018-10-16T09:25:47.950Z,53.62
2018-10-16T09:28:16.813Z,53.84
2018-10-16T09:30:45.702Z,52.68
2018-10-16T09:33:14.386Z,50.96
2018-10-16T09:35:43.201Z,51.26
2018-10-16T09:38:12.087Z,51.80
2018-10-16T09:40:40.742Z,51.83
2018-10-16T09:43:09.509Z,51.48
2018-10-16T09:45:38.341Z,51.41
2018-10-16T09:48:07.109Z,51.58
2018-10-16T09:50:35.929Z,51.95
2018-10-16T09:53:04.885Z,51.61
2018-10-16T09:55:33.658Z,51.96
2018-10-16T09:58:02.397Z,51.72
2018-10-16T10:00:36.696Z,51.74
2018-10-16T10:03:05.709Z,51.91
2018-10-16T10:05:39.936Z,51.78
2018-10-16T10:08:14.244Z,52.46
2018-10-16T10:10:48.547Z,52.70
2018-10-16T10:13:22.757Z,53.25
2018-10-16T10:15:57.236Z,53.52
2018-10-16T10:18:31.612Z,53.41
2018-10-16T10:21:06.116Z,52.81
2018-10-16T10:23:40.553Z,53.58
2018-10-16T10:26:14.997Z,53.33
2018-10-16T10:28:49.397Z,52.66
2018-10-16T10:31:23.770Z,51.69
2018-10-16T10:33:58.626Z,52.34
2018-10-16T10:36:33.173Z,51.67
2018-10-16T10:39:10.134Z,52.00
2018-10-16T10:41:38.945Z,51.94
2018-10-16T10:44:08.312Z,51.91
2018-10-16T10:46:37.215Z,51.79
2018-10-16T10:49:06.043Z,52.05
2018-10-16T10:51:35.170Z,52.11
2018-10-16T10:54:03.632Z,52.07
2018-10-16T10:56:32.586Z,52.59
2018-10-16T10:59:01.641Z,52.77
2018-10-16T11:01:30.470Z,52.28
2018-10-16T11:03:59.272Z,51.50
2018-10-16T11:06:28.045Z,52.08
2018-10-16T11:08:57.011Z,52.02
2018-10-16T11:11:25.850Z,52.58
2018-10-16T11:13:54.666Z,51.80
2018-10-16T11:16:23.510Z,50.92
2018-10-16T11:18:52.272Z,51.75
2018-10-16T11:21:21.043Z,51.41
2018-10-16T11:23:49.900Z,51.24
2018-10-16T11:26:18.761Z,51.22
2018-10-16T11:28:47.804Z,51.53
2018-10-16T11:31:16.669Z,50.51
2018-10-16T11:33:45.569Z,50.36
2018-10-16T11:36:14.421Z,49.20
2018-10-16T11:38:43.225Z,49.83
2018-10-16T11:41:12.021Z,48.82
2018-10-16T11:43:40.790Z,49.26
2018-10-16T11:46:09.586Z,47.49
2018-10-16T11:48:38.356Z,47.95
2018-10-16T11:51:07.145Z,47.90
2018-10-16T11:53:35.945Z,48.29
2018-10-16T11:56:04.758Z,48.14
2018-10-16T11:58:33.461Z,47.47
2018-10-16T12:01:02.380Z,46.97
2018-10-16T12:03:31.151Z,46.91
2018-10-16T12:06:00.157Z,48.51
2018-10-16T12:08:28.887Z,48.75
2018-10-16T12:10:57.754Z,48.66
2018-10-16T12:13:26.528Z,48.20
2018-10-16T12:15:55.290Z,48.34
2018-10-16T12:18:33.177Z,46.74
2018-10-16T12:21:07.791Z,47.39
2018-10-16T12:23:36.595Z,47.10
2018-10-16T12:26:05.610Z,47.72
2018-10-16T12:28:34.398Z,48.01
2018-10-16T12:31:03.248Z,47.64
2018-10-16T12:33:32.034Z,48.08
2018-10-16T12:36:00.836Z,47.72
2018-10-16T12:38:29.733Z,48.44
2018-10-16T12:40:59.025Z,48.06
2018-10-16T12:43:28.233Z,48.73
2018-10-16T12:45:57.438Z,49.23
2018-10-16T12:48:26.257Z,49.59
2018-10-16T12:50:55.062Z,49.62
2018-10-16T12:53:23.955Z,49.42
2018-10-16T12:55:52.754Z,49.46
2018-10-16T12:58:21.670Z,48.43
2018-10-16T13:00:50.589Z,49.23
2018-10-16T13:03:19.369Z,48.48
2018-10-16T13:05:48.229Z,48.93
2018-10-16T13:08:17.027Z,47.54
2018-10-16T13:10:45.904Z,47.75
2018-10-16T13:13:14.703Z,48.06
2018-10-16T13:15:43.496Z,47.86
2018-10-16T13:18:12.425Z,47.62
2018-10-16T13:20:41.285Z,47.83
2018-10-16T13:23:10.242Z,48.25
2018-10-16T13:25:38.980Z,48.48
2018-10-16T13:28:07.866Z,47.57
2018-10-16T13:30:36.601Z,47.58
2018-10-16T13:33:05.472Z,47.42
2018-10-16T13:35:34.245Z,47.56
2018-10-16T13:38:03.050Z,47.87
2018-10-16T13:40:31.797Z,46.93
2018-10-16T13:43:00.600Z,48.27
2018-10-16T13:45:29.353Z,47.65
2018-10-16T13:47:58.144Z,47.64
2018-10-16T13:50:26.913Z,47.36
2018-10-16T13:52:55.676Z,47.40
2018-10-16T13:55:24.490Z,47.44
2018-10-16T13:57:53.290Z,46.92
2018-10-16T14:00:22.026Z,47.16
2018-10-16T14:02:51.984Z,47.83
2018-10-16T14:05:20.785Z,47.92
2018-10-16T14:07:49.573Z,48.22
2018-10-16T14:10:18.661Z,48.55
2018-10-16T14:12:48.144Z,48.72
2018-10-16T14:15:17.475Z,49.74
2018-10-16T14:17:46.258Z,49.64
2018-10-16T14:20:15.058Z,50.17
2018-10-16T14:22:44.138Z,50.39
2018-10-16T14:25:14.251Z,50.79
2018-10-16T14:27:43.241Z,51.11
2018-10-16T14:30:14.197Z,50.89
2018-10-16T14:32:43.385Z,51.94
2018-10-16T14:35:12.693Z,51.79
2018-10-16T14:37:41.677Z,52.00
2018-10-16T14:40:12.543Z,52.40
2018-10-16T14:42:41.504Z,51.65
2018-10-16T14:45:11.229Z,52.36
2018-10-16T14:47:39.995Z,52.08
2018-10-16T14:50:09.600Z,52.38
2018-10-16T14:52:38.271Z,52.16
2018-10-16T14:55:07.033Z,51.76
2018-10-16T14:57:35.904Z,52.15
2018-10-16T15:00:06.290Z,51.82
2018-10-16T15:02:35.070Z,51.89
2018-10-16T15:05:04.270Z,52.01
2018-10-16T15:07:33.035Z,51.50
2018-10-16T15:10:01.918Z,52.06
2018-10-16T15:12:30.965Z,51.35
2018-10-16T15:15:00.283Z,51.03
2018-10-16T15:17:29.658Z,51.43
2018-10-16T15:19:58.698Z,51.34
2018-10-16T15:22:27.768Z,51.49
2018-10-16T15:24:56.549Z,50.73
2018-10-16T15:27:25.417Z,50.92
2018-10-16T15:29:54.325Z,51.36
2018-10-16T15:32:23.156Z,50.92
2018-10-16T15:34:52.001Z,50.87
2018-10-16T15:37:21.115Z,51.07
2018-10-16T15:39:49.958Z,51.21
2018-10-16T15:42:18.846Z,51.82
2018-10-16T15:44:47.629Z,51.42
2018-10-16T15:47:16.436Z,51.44
2018-10-16T15:49:45.257Z,51.69
2018-10-16T15:52:14.176Z,51.84
2018-10-16T15:54:42.849Z,52.40
2018-10-16T15:57:11.666Z,52.94
2018-10-16T15:59:40.437Z,53.11
2018-10-16T16:02:09.287Z,53.26
2018-10-16T16:04:38.045Z,53.98
2018-10-16T16:07:06.809Z,54.41
2018-10-16T16:09:35.597Z,54.76
2018-10-16T16:12:04.548Z,54.47
2018-10-16T16:14:33.253Z,55.37
2018-10-16T16:17:02.136Z,55.16
2018-10-16T16:19:30.898Z,55.16
2018-10-16T16:21:59.680Z,55.00
2018-10-16T16:24:28.505Z,55.78
2018-10-16T16:26:57.278Z,55.93
2018-10-16T16:29:26.038Z,56.35
2018-10-16T16:31:54.931Z,55.82
2018-10-16T16:34:23.648Z,56.39
2018-10-16T16:36:52.494Z,56.18
2018-10-16T16:39:21.175Z,56.76
2018-10-16T16:41:50.053Z,57.26
2018-10-16T16:44:18.806Z,57.32
2018-10-16T16:46:47.583Z,57.45
2018-10-16T16:49:16.365Z,58.05
2018-10-16T16:51:45.112Z,57.84
2018-10-16T16:54:13.886Z,58.30
2018-10-16T16:56:42.633Z,58.13
2018-10-16T16:59:11.541Z,58.50
2018-10-16T17:01:40.177Z,59.18
2018-10-16T17:04:08.988Z,59.38
2018-10-16T17:06:37.690Z,59.13
2018-10-16T17:09:09.661Z,59.51
2018-10-16T17:11:38.491Z,59.45
2018-10-16T17:14:07.602Z,60.14
2018-10-16T17:16:36.438Z,60.20
2018-10-16T17:19:05.825Z,60.61
2018-10-16T17:21:34.614Z,60.38
2018-10-16T17:24:03.529Z,60.91
2018-10-16T17:26:32.389Z,60.70
2018-10-16T17:29:01.339Z,60.99
2018-10-16T17:31:30.166Z,61.29
2018-10-16T17:33:59.036Z,61.33
2018-10-16T17:36:28.825Z,61.87
2018-10-16T17:38:57.628Z,61.99
2018-10-16T17:41:26.415Z,61.77
2018-10-16T17:43:55.240Z,61.99
2018-10-16T17:46:24.206Z,62.00
2018-10-16T17:48:54.099Z,62.27
2018-10-16T17:51:22.889Z,62.02
2018-10-16T17:53:51.782Z,62.32
2018-10-16T17:56:20.703Z,62.69
2018-10-16T17:58:49.481Z,62.53
2018-10-16T18:01:18.253Z,62.80
2018-10-16T18:03:47.004Z,62.68
2018-10-16T18:06:15.818Z,63.07
2018-10-16T18:08:44.588Z,62.31
2018-10-16T18:11:13.409Z,62.55
2018-10-16T18:13:42.170Z,62.87
2018-10-16T18:16:10.951Z,62.60
2018-10-16T18:18:39.706Z,62.84
2018-10-16T18:21:08.555Z,63.36
2018-10-16T18:23:37.384Z,63.38
2018-10-16T18:26:06.138Z,63.16
2018-10-16T18:28:34.893Z,62.92
2018-10-16T18:31:03.656Z,63.61
2018-10-16T18:33:32.893Z,64.56
2018-10-16T18:36:01.696Z,64.10
2018-10-16T18:38:30.694Z,63.88
2018-10-16T18:40:59.551Z,64.10
2018-10-16T18:43:28.916Z,64.34
2018-10-16T18:45:57.819Z,64.48
2018-10-16T18:48:26.614Z,64.20
2018-10-16T18:50:55.432Z,64.11
2018-10-16T18:53:24.301Z,64.61
2018-10-16T18:55:53.062Z,64.29
2018-10-16T18:58:21.884Z,64.73
2018-10-16T19:00:50.660Z,64.77
2018-10-16T19:03:19.445Z,65.09
2018-10-16T19:05:48.227Z,65.18
2018-10-16T19:08:16.989Z,64.99
2018-10-16T19:10:45.885Z,65.96
2018-10-16T19:13:14.668Z,66.07
2018-10-16T19:15:43.485Z,65.39
2018-10-16T19:18:12.273Z,65.69
2018-10-16T19:20:41.064Z,65.56
2018-10-16T19:23:09.838Z,66.00
2018-10-16T19:25:38.672Z,66.07
2018-10-16T19:28:07.673Z,65.86
2018-10-16T19:30:36.442Z,66.03
2018-10-16T19:33:05.440Z,66.07
2018-10-16T19:35:34.205Z,66.55
2018-10-16T19:38:02.971Z,66.76
2018-10-16T19:40:31.829Z,66.48
2018-10-16T19:43:00.637Z,66.76
2018-10-16T19:45:29.462Z,67.47
2018-10-16T19:47:58.193Z,67.06
2018-10-16T19:50:26.981Z,67.37
2018-10-16T19:52:55.746Z,67.86
2018-10-16T19:55:25.341Z,67.48
2018-10-16T19:57:54.221Z,67.95
2018-10-16T20:00:23.023Z,68.07
2018-10-16T20:02:51.803Z,67.92
2018-10-16T20:05:20.583Z,67.84
2018-10-16T20:07:49.362Z,68.07
2018-10-16T20:10:18.265Z,68.52
2018-10-16T20:12:47.051Z,68.33
2018-10-16T20:15:15.841Z,68.84
2018-10-16T20:17:44.637Z,68.77
2018-10-16T20:20:13.823Z,68.80
2018-10-16T20:22:43.638Z,68.56
2018-10-16T20:25:12.570Z,70.11
2018-10-16T20:27:41.370Z,69.04
2018-10-16T20:30:11.482Z,69.89
2018-10-16T20:32:40.575Z,69.88
2018-10-16T20:35:09.398Z,70.79
2018-10-16T20:37:38.230Z,70.34
2018-10-16T20:40:07.337Z,70.48
2018-10-16T20:42:37.186Z,70.48
2018-10-16T20:45:06.326Z,69.71
2018-10-16T20:47:35.257Z,69.81
2018-10-16T20:50:04.077Z,70.54
2018-10-16T20:52:32.863Z,70.52
2018-10-16T20:55:01.770Z,71.21
2018-10-16T20:57:30.590Z,70.99
2018-10-16T20:59:59.673Z,71.27
2018-10-16T21:02:28.537Z,71.33
2018-10-16T21:04:57.476Z,71.90
2018-10-16T21:07:26.207Z,71.58
2018-10-16T21:09:55.031Z,72.51
2018-10-16T21:12:23.856Z,72.03
2018-10-16T21:14:52.622Z,71.63
2018-10-16T21:17:21.393Z,72.50
2018-10-16T21:19:50.139Z,72.47
2018-10-16T21:22:20.929Z,72.38
2018-10-16T21:24:49.701Z,72.42
2018-10-16T21:27:18.513Z,72.48
2018-10-16T21:29:47.452Z,73.14
2018-10-16T21:32:16.214Z,73.33
2018-10-16T21:34:45.016Z,72.76
2018-10-16T21:37:14.006Z,73.29
2018-10-16T21:39:42.697Z,72.60
2018-10-16T21:42:11.448Z,73.28
2018-10-16T21:44:40.224Z,73.35
2018-10-16T21:47:09.004Z,73.27
2018-10-16T21:49:37.809Z,73.82
2018-10-16T21:52:06.562Z,73.70
2018-10-16T21:54:35.307Z,73.84
2018-10-16T21:57:04.184Z,73.95
2018-10-16T21:59:32.978Z,74.71
2018-10-16T22:02:06.937Z,74.69
2018-10-16T22:04:35.676Z,74.35
2018-10-16T22:07:04.585Z,74.34
2018-10-16T22:09:33.252Z,74.21
2018-10-16T22:12:02.050Z,73.84
2018-10-16T22:14:30.799Z,74.54
2018-10-16T22:16:59.588Z,74.10
2018-10-16T22:19:28.409Z,74.85
2018-10-16T22:21:57.167Z,74.67
2018-10-16T22:24:25.947Z,75.41
2018-10-16T22:26:54.692Z,75.48
2018-10-16T22:29:23.489Z,75.93
2018-10-16T22:31:52.224Z,75.69
2018-10-16T22:34:21.133Z,76.53
2018-10-16T22:36:49.930Z,76.87
2018-10-16T22:39:18.724Z,76.69
2018-10-16T22:41:47.500Z,76.70
2018-10-16T22:44:16.237Z,77.00
2018-10-16T22:46:44.990Z,77.22
2018-10-16T22:49:13.820Z,77.32
2018-10-16T22:51:42.512Z,77.08
2018-10-16T22:54:11.257Z,76.94
2018-10-16T22:56:40.206Z,77.59
2018-10-16T22:59:09.015Z,77.24
2018-10-16T23:01:37.706Z,77.14
2018-10-16T23:04:06.462Z,77.89
2018-10-16T23:06:35.227Z,77.90
2018-10-16T23:09:05.010Z,78.21
2018-10-16T23:11:33.817Z,78.12
2018-10-16T23:14:02.536Z,77.94
2018-10-16T23:16:31.310Z,77.73
2018-10-16T23:19:00.109Z,78.11
2018-10-16T23:21:28.820Z,78.79
2018-10-16T23:23:57.580Z,78.20
2018-10-16T23:26:26.325Z,78.23
2018-10-16T23:28:55.120Z,78.60
2018-10-16T23:31:23.924Z,78.90
2018-10-16T23:33:52.688Z,78.90
2018-10-16T23:36:21.434Z,79.17
2018-10-16T23:38:50.181Z,79.42
2018-10-16T23:41:18.956Z,79.53
2018-10-16T23:43:47.730Z,79.95
2018-10-16T23:46:16.472Z,80.14
2018-10-16T23:48:45.220Z,79.78
2018-10-16T23:51:13.964Z,80.18
2018-10-16T23:53:42.716Z,80.12
2018-10-16T23:56:11.466Z,80.93
2018-10-16T23:58:40.221Z,80.79
